^^
Grace C. Lehan Memorial Weather Station Historical Data
Daily Summary for June 8, 2021 Units:  English    Metric   Both
Daily Weekly Monthly Yearly
  High: Low: Average:
Temperature: 84.2 °F 61.5 °F 73.2 °F
Dew Point: 71.1 °F 59.5 °F 66.5 °F
Humidity: 96% 58.9% 81%
Wind Speed: 3.3mph 0mph 0.5mph
Wind Gust: 14mph - -
Wind- - South
Pressure: 29.90 in 29.76 in -
Precipitation: 0.00 in    
 
 
Tabular Data for June 8, 2021
Time Temperature Dew Point Pressure Wind Wind Speed Wind Gust Humidity Rainfall Rate (Hourly) solar
00:09 63.3 °F 59.7 °F 29.90 in Calm     88% 0.00 in 0 W/m2
00:14 63.2 °F 59.6 °F 29.90 in Calm     88% 0.00 in 0 W/m2
00:19 63.1 °F 59.8 °F 29.90 in Calm     88.9% 0.00 in 0 W/m2
00:24 63 °F 59.7 °F 29.90 in Calm     89% 0.00 in 0 W/m2
00:29 62.9 °F 59.6 °F 29.90 in Calm     89% 0.00 in 0 W/m2
00:34 62.9 °F 59.6 °F 29.90 in Calm     89% 0.00 in 0 W/m2
00:39 62.7 °F 59.8 °F 29.90 in Calm     90% 0.00 in 0 W/m2
00:44 62.7 °F 59.7 °F 29.90 in Calm     90% 0.00 in 0 W/m2
00:49 62.7 °F 59.7 °F 29.90 in Calm     90% 0.00 in 0 W/m2
00:54 62.7 °F 59.8 °F 29.90 in Calm     90.4% 0.00 in 0 W/m2
00:59 62.7 °F 59.9 °F 29.90 in Calm     90.7% 0.00 in 0 W/m2
01:04 62.6 °F 59.9 °F 29.90 in Calm     91% 0.00 in 0 W/m2
01:09 62.6 °F 59.9 °F 29.90 in Calm     91% 0.00 in 0 W/m2
01:14 62.5 °F 59.8 °F 29.90 in Calm     91% 0.00 in 0 W/m2
01:19 62.5 °F 59.8 °F 29.90 in Calm     91% 0.00 in 0 W/m2
01:24 62.4 °F 59.7 °F 29.90 in Calm     91% 0.00 in 0 W/m2
01:29 62.3 °F 59.6 °F 29.90 in Calm     91% 0.00 in 0 W/m2
01:34 62.2 °F 59.6 °F 29.90 in Calm     91% 0.00 in 0 W/m2
01:39 62.2 °F 59.6 °F 29.89 in Calm     91% 0.00 in 0 W/m2
01:44 62.2 °F 59.5 °F 29.89 in Calm     91% 0.00 in 0 W/m2
01:49 62.1 °F 59.5 °F 29.89 in Calm     91% 0.00 in 0 W/m2
01:54 62.1 °F 59.6 °F 29.89 in Calm     91.6% 0.00 in 0 W/m2
01:59 62.1 °F 59.8 °F 29.89 in Calm     92% 0.00 in 0 W/m2
02:04 62.2 °F 59.8 °F 29.89 in Calm     92% 0.00 in 0 W/m2
02:09 62.2 °F 59.9 °F 29.88 in Calm     92% 0.00 in 0 W/m2
02:14 62.2 °F 59.9 °F 29.88 in Calm     92% 0.00 in 0 W/m2
02:19 62.2 °F 59.9 °F 29.88 in Calm     92% 0.00 in 0 W/m2
02:24 62.2 °F 59.8 °F 29.88 in Calm     92% 0.00 in 0 W/m2
02:29 62.2 °F 59.8 °F 29.88 in Calm     92% 0.00 in 0 W/m2
02:34 62.2 °F 59.8 °F 29.88 in Calm     92% 0.00 in 0 W/m2
02:39 62.2 °F 59.8 °F 29.88 in Calm     92% 0.00 in 0 W/m2
02:44 62.2 °F 59.8 °F 29.88 in Calm     92% 0.00 in 0 W/m2
02:49 62.1 °F 59.8 °F 29.88 in Calm     92% 0.00 in 0 W/m2
02:54 62.1 °F 59.7 °F 29.88 in Calm     92% 0.00 in 0 W/m2
02:59 62 °F 59.7 °F 29.88 in Calm     92% 0.00 in 0 W/m2
03:04 61.9 °F 59.7 °F 29.88 in Calm     92.5% 0.00 in 0 W/m2
03:09 61.9 °F 59.9 °F 29.88 in Calm     93% 0.00 in 0 W/m2
03:14 62 °F 59.9 °F 29.88 in Calm     93% 0.00 in 0 W/m2
03:19 62 °F 60 °F 29.88 in Calm     93% 0.00 in 0 W/m2
03:24 62 °F 60 °F 29.88 in Calm     93% 0.00 in 0 W/m2
03:29 62.1 °F 60.1 °F 29.88 in Calm     93% 0.00 in 0 W/m2
03:34 62.1 °F 60.1 °F 29.88 in Calm     93% 0.00 in 0 W/m2
03:39 62.1 °F 60.1 °F 29.88 in Calm     93% 0.00 in 0 W/m2
03:44 62.2 °F 60.2 °F 29.87 in Calm     93% 0.00 in 0 W/m2
03:49 62.2 °F 60.2 °F 29.87 in Calm     93% 0.00 in 0 W/m2
03:54 62.2 °F 60.1 °F 29.87 in Calm     93% 0.00 in 0 W/m2
03:59 62.1 °F 60.1 °F 29.87 in Calm     93% 0.00 in 0 W/m2
04:00 62.1 °F 60.1 °F 29.87 in Calm     93% 0.00 in 0 W/m2
04:09 62 °F 60 °F 29.87 in Calm     93.3% 0.00 in 0 W/m2
04:14 61.9 °F 59.9 °F 29.87 in Calm     93% 0.00 in 0 W/m2
04:19 61.8 °F 59.8 °F 29.86 in Calm     93% 0.00 in 0 W/m2
04:24 61.7 °F 59.7 °F 29.86 in Calm     93% 0.00 in 0 W/m2
04:29 61.7 °F 59.6 °F 29.86 in Calm     93% 0.00 in 0 W/m2
04:34 61.7 °F 59.9 °F 29.86 in Calm     93.9% 0.00 in 0 W/m2
04:39 61.7 °F 60 °F 29.86 in Calm     94% 0.00 in 0 W/m2
04:44 61.7 °F 59.9 °F 29.86 in Calm     94% 0.00 in 0 W/m2
04:49 61.6 °F 59.9 °F 29.86 in Calm     94% 0.00 in 0 W/m2
04:54 61.5 °F 59.8 °F 29.86 in Calm     94% 0.00 in 0 W/m2
04:59 61.5 °F 59.8 °F 29.86 in Calm     94% 0.00 in 0 W/m2
05:04 61.6 °F 59.9 °F 29.86 in Calm     94% 0.00 in 0 W/m2
05:09 61.7 °F 59.9 °F 29.86 in Calm     94% 0.00 in 0 W/m2
05:14 61.7 °F 60 °F 29.86 in Calm     94% 0.00 in 0 W/m2
05:19 61.8 °F 60 °F 29.86 in Calm     94% 0.00 in 0 W/m2
05:24 61.8 °F 60.1 °F 29.86 in Calm     94% 0.00 in 0 W/m2
05:29 61.9 °F 60.1 °F 29.86 in Calm     94% 0.00 in 0 W/m2
05:34 61.9 °F 60.4 °F 29.86 in Calm     94.7% 0.00 in 0 W/m2
05:39 62 °F 60.6 °F 29.86 in Calm     95% 0.00 in 0 W/m2
05:44 62 °F 60.6 °F 29.86 in Calm     95% 0.00 in 0 W/m2
05:49 62.1 °F 60.7 °F 29.86 in Calm     95% 0.00 in 0 W/m2
05:54 62.3 °F 60.8 °F 29.86 in Calm     95% 0.00 in 0 W/m2
05:59 62.5 °F 61 °F 29.86 in Calm     95% 0.00 in 0 W/m2
06:04 62.6 °F 61.1 °F 29.86 in Calm     95% 0.00 in 0 W/m2
06:09 62.6 °F 61.2 °F 29.86 in Calm     95% 0.00 in 0 W/m2
06:14 62.7 °F 61.2 °F 29.86 in Calm     95% 0.00 in 0 W/m2
06:19 62.7 °F 61.3 °F 29.86 in Calm     95% 0.00 in 0 W/m2
06:24 62.8 °F 61.3 °F 29.86 in Calm     95% 0.00 in 0 W/m2
06:29 62.9 °F 61.4 °F 29.86 in Calm     95% 0.00 in 0 W/m2
06:34 63 °F 61.6 °F 29.86 in Calm     95% 0.00 in 7 W/m2
06:39 63.1 °F 61.7 °F 29.86 in Calm     95% 0.00 in 12 W/m2
06:44 63.3 °F 61.8 °F 29.86 in Calm     95% 0.00 in 12 W/m2
06:49 63.4 °F 62 °F 29.87 in Calm     95% 0.00 in 12 W/m2
06:54 63.6 °F 62.4 °F 29.87 in Calm     95.9% 0.00 in 19 W/m2
06:59 63.8 °F 62.7 °F 29.87 in Calm     96% 0.00 in 26 W/m2
07:04 64 °F 62.8 °F 29.87 in Calm     96% 0.00 in 32 W/m2
07:09 64.2 °F 63 °F 29.87 in Calm     96% 0.00 in 46 W/m2
07:14 64.4 °F 63.2 °F 29.87 in Calm     96% 0.00 in 42 W/m2
07:19 64.6 °F 63.4 °F 29.87 in Calm     96% 0.00 in 32 W/m2
07:24 64.8 °F 63.6 °F 29.87 in Calm     96% 0.00 in 33 W/m2
07:29 64.9 °F 63.7 °F 29.87 in Calm     96% 0.00 in 44 W/m2
07:34 65.1 °F 63.9 °F 29.87 in Calm     96% 0.00 in 51 W/m2
07:39 65.2 °F 64.1 °F 29.87 in Calm     96% 0.00 in 42 W/m2
07:44 65.4 °F 64.3 °F 29.87 in Calm     96% 0.00 in 46 W/m2
07:49 65.6 °F 64.5 °F 29.87 in Calm     96% 0.00 in 40 W/m2
07:54 65.8 °F 64.7 °F 29.87 in Calm     96% 0.00 in 49 W/m2
07:59 66 °F 64.9 °F 29.87 in Calm     96% 0.00 in 69 W/m2
08:04 66.4 °F 65.2 °F 29.87 in Calm     96% 0.00 in 62 W/m2
08:09 66.5 °F 65.3 °F 29.87 in Calm     96% 0.00 in 62 W/m2
08:14 66.8 °F 65.6 °F 29.87 in Calm     96% 0.00 in 63 W/m2
08:19 67 °F 65.9 °F 29.87 in Calm     96% 0.00 in 76 W/m2
08:24 67.4 °F 66.2 °F 29.86 in Calm     96% 0.00 in 79 W/m2
08:29 67.7 °F 66.5 °F 29.86 in WSW 0.1 mph 2 mph 96% 0.00 in 132 W/m2
08:34 68.1 °F 66.9 °F 29.86 in Calm   2 mph 96% 0.00 in 255 W/m2
08:39 68.6 °F 67.5 °F 29.86 in Calm     96% 0.00 in 334 W/m2
08:44 69.3 °F 68.1 °F 29.86 in Calm     96% 0.00 in 345 W/m2
08:49 70 °F 68.6 °F 29.86 in Calm     95.4% 0.00 in 413 W/m2
08:54 71 °F 69.2 °F 29.86 in Calm   1 mph 94.1% 0.00 in 432 W/m2
08:59 72 °F 69.6 °F 29.86 in Calm   1 mph 92% 0.00 in 450 W/m2
09:04 73.2 °F 69.8 °F 29.86 in Calm   1 mph 89.1% 0.00 in 466 W/m2
09:09 74.4 °F 69.9 °F 29.86 in Calm   1 mph 85.8% 0.00 in 475 W/m2
09:14 75.8 °F 70.3 °F 29.86 in Calm   1 mph 83.3% 0.00 in 494 W/m2
09:19 76.9 °F 70.4 °F 29.86 in Calm   2 mph 80.3% 0.00 in 508 W/m2
09:24 77.9 °F 69.3 °F 29.85 in SW 1.3 mph 8 mph 75.1% 0.00 in 527 W/m2
09:29 78.4 °F 68.7 °F 29.86 in WSW 0.3 mph 8 mph 72.2% 0.00 in 543 W/m2
09:34 78.8 °F 68.8 °F 29.86 in SSW 0.2 mph 8 mph 71.5% 0.00 in 552 W/m2
09:39 79.3 °F 68.7 °F 29.86 in WSW 0.5 mph 6 mph 70.2% 0.00 in 570 W/m2
09:44 79.7 °F 68.9 °F 29.86 in WSW 0.2 mph 6 mph 69.6% 0.00 in 584 W/m2
09:49 80.3 °F 69.3 °F 29.86 in SW 0.4 mph 6 mph 69.3% 0.00 in 601 W/m2
09:54 80.7 °F 69.2 °F 29.86 in SSW 0.5 mph 6 mph 67.9% 0.00 in 610 W/m2
09:59 81.2 °F 69.2 °F 29.86 in WSW 1.7 mph 6 mph 67% 0.00 in 628 W/m2
10:04 81.6 °F 69.1 °F 29.86 in WSW 1.4 mph 6 mph 66% 0.00 in 643 W/m2
10:09 81.9 °F 68.9 °F 29.85 in SW 0.2 mph 6 mph 64.8% 0.00 in 649 W/m2
10:14 82.4 °F 69.3 °F 29.85 in Calm   6 mph 64.6% 0.00 in 659 W/m2
10:19 82.9 °F 69.2 °F 29.85 in WSW 0.3 mph 6 mph 63.5% 0.00 in 666 W/m2
10:24 83.2 °F 69.1 °F 29.85 in SSW 0.5 mph 6 mph 62.5% 0.00 in 675 W/m2
10:29 83.2 °F 69 °F 29.86 in SSW 0.7 mph 6 mph 62.2% 0.00 in 682 W/m2
10:34 83.3 °F 68.9 °F 29.86 in SSW 0.6 mph 6 mph 62% 0.00 in 691 W/m2
10:39 83.4 °F 69.1 °F 29.86 in SW 0.6 mph 6 mph 62.2% 0.00 in 696 W/m2
10:44 83.6 °F 69.3 °F 29.85 in SW 0.2 mph 6 mph 62.2% 0.00 in 708 W/m2
10:49 84 °F 69.4 °F 29.85 in SSW 1.6 mph 7 mph 61.6% 0.00 in 719 W/m2
10:54 84.1 °F 68.9 °F 29.85 in SW 1.2 mph 7 mph 60.4% 0.00 in 728 W/m2
10:59 84.2 °F 68.5 °F 29.85 in SSW 0.6 mph 7 mph 59.5% 0.00 in 733 W/m2
11:04 84 °F 68.5 °F 29.85 in WSW 0.4 mph 7 mph 59.7% 0.00 in 745 W/m2
11:08 84 °F 68.8 °F 29.85 in WSW 0.9 mph 4 mph 60.3% 0.00 in 747 W/m2
11:14 84 °F 68.1 °F 29.85 in South 1.4 mph 5 mph 58.9% 0.00 in 761 W/m2
11:19 83.9 °F 68.8 °F 29.84 in SW 1.7 mph 6 mph 60.6% 0.00 in 761 W/m2
11:24 84 °F 68.4 °F 29.84 in South 1.4 mph 6 mph 59.6% 0.00 in 768 W/m2
11:29 83.7 °F 68.6 °F 29.84 in SSW 1.2 mph 7 mph 60.4% 0.00 in 775 W/m2
11:34 83.7 °F 69 °F 29.84 in South 0.9 mph 7 mph 61.3% 0.00 in 782 W/m2
11:39 83.7 °F 68.6 °F 29.84 in South 0.9 mph 5 mph 60.6% 0.00 in 777 W/m2
11:44 83.5 °F 69 °F 29.84 in SW 0.8 mph 6 mph 61.7% 0.00 in 789 W/m2
11:49 83.4 °F 69 °F 29.84 in South 0.9 mph 6 mph 62% 0.00 in 786 W/m2
11:54 83.1 °F 68.7 °F 29.84 in South 1.7 mph 6 mph 61.8% 0.00 in 675 W/m2
11:59 82.8 °F 68.8 °F 29.83 in South 1.1 mph 6 mph 62.8% 0.00 in 179 W/m2
12:00 82.7 °F 68.8 °F 29.83 in Calm   6 mph 63% 0.00 in 128 W/m2
12:09 82.4 °F 68.6 °F 29.83 in South 1.4 mph 6 mph 63.2% 0.00 in 172 W/m2
12:14 82.3 °F 68.1 °F 29.83 in South 2.4 mph 7 mph 62.4% 0.00 in 146 W/m2
12:19 82.1 °F 68.1 °F 29.82 in South 1.9 mph 7 mph 62.7% 0.00 in 176 W/m2
12:24 82 °F 68.5 °F 29.82 in SSW 1.2 mph 7 mph 63.7% 0.00 in 220 W/m2
12:29 81.8 °F 67.4 °F 29.82 in South 2.2 mph 8 mph 61.8% 0.00 in 207 W/m2
12:34 81.5 °F 67 °F 29.82 in South 2.3 mph 11 mph 61.6% 0.00 in 264 W/m2
12:39 81.5 °F 67.3 °F 29.82 in South 2.6 mph 11 mph 62.2% 0.00 in 135 W/m2
12:44 81.6 °F 67.2 °F 29.82 in South 3.2 mph 12 mph 61.8% 0.00 in 123 W/m2
12:49 81.6 °F 67.8 °F 29.82 in SSW 1 mph 12 mph 63% 0.00 in 116 W/m2
12:54 81.8 °F 68 °F 29.82 in SSW 1.4 mph 12 mph 62.8% 0.00 in 441 W/m2
12:59 82 °F 67.6 °F 29.82 in SSW 1.1 mph 12 mph 61.8% 0.00 in 327 W/m2
13:04 82.1 °F 67.8 °F 29.81 in SSW 1.4 mph 12 mph 62% 0.00 in 724 W/m2
13:09 82 °F 67.1 °F 29.81 in South 2.4 mph 12 mph 60.7% 0.00 in 283 W/m2
13:14 81.8 °F 67.1 °F 29.81 in South 2.3 mph 12 mph 61% 0.00 in 229 W/m2
13:19 81.6 °F 66.9 °F 29.81 in South 1.3 mph 12 mph 61% 0.00 in 274 W/m2
13:24 81.6 °F 67.3 °F 29.81 in South 0.9 mph 12 mph 61.9% 0.00 in 262 W/m2
13:29 81.7 °F 67.4 °F 29.81 in SW 0.8 mph 12 mph 61.9% 0.00 in 227 W/m2
13:34 81.8 °F 67.3 °F 29.81 in SSW 0.4 mph 12 mph 61.5% 0.00 in 251 W/m2
13:39 82.1 °F 67.7 °F 29.81 in South 1.3 mph 9 mph 61.8% 0.00 in 239 W/m2
13:44 82.4 °F 67.5 °F 29.81 in South 0.9 mph 9 mph 60.9% 0.00 in 176 W/m2
13:49 82.6 °F 68.2 °F 29.81 in SSW 0.3 mph 9 mph 62% 0.00 in 155 W/m2
13:54 82.7 °F 67.9 °F 29.81 in South 1.7 mph 9 mph 61.1% 0.00 in 214 W/m2
13:59 82.5 °F 67.7 °F 29.81 in South 1.5 mph 9 mph 61% 0.00 in 206 W/m2
14:04 82.4 °F 68 °F 29.81 in SSE 1.1 mph 9 mph 61.7% 0.00 in 230 W/m2
14:09 82.3 °F 68.1 °F 29.80 in SSE 0.7 mph 6 mph 62.3% 0.00 in 267 W/m2
14:14 82.2 °F 67.8 °F 29.80 in South 1.5 mph 9 mph 61.8% 0.00 in 167 W/m2
14:19 82.1 °F 67.7 °F 29.80 in South 1.6 mph 9 mph 61.8% 0.00 in 227 W/m2
14:24 82.1 °F 67.7 °F 29.80 in South 2.1 mph 10 mph 61.9% 0.00 in 847 W/m2
14:29 81.9 °F 67.4 °F 29.80 in South 1.3 mph 10 mph 61.4% 0.00 in 174 W/m2
14:34 81.8 °F 67.6 °F 29.80 in South 1 mph 10 mph 62.2% 0.00 in 195 W/m2
14:39 81.7 °F 67.6 °F 29.80 in South 1.5 mph 11 mph 62.4% 0.00 in 232 W/m2
14:44 81.5 °F 67.8 °F 29.80 in SSW 1.7 mph 11 mph 63.3% 0.00 in 225 W/m2
14:49 81.4 °F 68.2 °F 29.80 in South 1 mph 11 mph 64.4% 0.00 in 258 W/m2
14:54 81.3 °F 67.4 °F 29.79 in SSW 2.4 mph 11 mph 62.7% 0.00 in 747 W/m2
14:59 81.4 °F 67.7 °F 29.79 in SSW 1 mph 11 mph 63.2% 0.00 in 754 W/m2
15:04 81.9 °F 68 °F 29.79 in South 1.1 mph 11 mph 63% 0.00 in 689 W/m2
15:09 82.1 °F 68.3 °F 29.78 in South 1.8 mph 9 mph 63% 0.00 in 686 W/m2
15:14 82.1 °F 68.7 °F 29.78 in SSW 2.4 mph 13 mph 63.9% 0.00 in 684 W/m2
15:19 82.2 °F 68.6 °F 29.78 in South 2 mph 13 mph 63.5% 0.00 in 687 W/m2
15:24 82.3 °F 68.7 °F 29.78 in South 3.3 mph 14 mph 63.5% 0.00 in 647 W/m2
15:29 82.2 °F 69.1 °F 29.77 in SSW 1 mph 14 mph 64.5% 0.00 in 650 W/m2
15:34 82.5 °F 69.7 °F 29.77 in SSW 0.8 mph 14 mph 65.4% 0.00 in 621 W/m2
15:39 82.6 °F 69.2 °F 29.77 in South 1.3 mph 7 mph 64% 0.00 in 694 W/m2
15:44 82.6 °F 69.1 °F 29.77 in South 2 mph 12 mph 63.8% 0.00 in 622 W/m2
15:49 82.3 °F 68.6 °F 29.77 in South 2.4 mph 12 mph 63.3% 0.00 in 346 W/m2
15:54 82 °F 69.3 °F 29.77 in SSW 0.6 mph 12 mph 65.5% 0.00 in 624 W/m2
15:59 82 °F 69.6 °F 29.77 in South 1.8 mph 12 mph 66.2% 0.00 in 599 W/m2
16:00 82 °F 69.5 °F 29.77 in South 1 mph 12 mph 66% 0.00 in 132 W/m2
16:09 81.6 °F 69.3 °F 29.76 in South 1.8 mph 7 mph 66.5% 0.00 in 158 W/m2
16:14 81.4 °F 69.8 °F 29.76 in South 0.5 mph 8 mph 68.1% 0.00 in 135 W/m2
16:19 81 °F 69.9 °F 29.76 in South 0.4 mph 8 mph 68.9% 0.00 in 128 W/m2
16:24 80.7 °F 70 °F 29.76 in South 1 mph 8 mph 69.9% 0.00 in 121 W/m2
16:29 80.5 °F 69.9 °F 29.76 in SSW 0.8 mph 8 mph 70.2% 0.00 in 121 W/m2
16:34 80.3 °F 69.9 °F 29.76 in Calm   8 mph 70.7% 0.00 in 107 W/m2
16:39 80.3 °F 70.2 °F 29.76 in SSW 0.4 mph 4 mph 71.3% 0.00 in 93 W/m2
16:44 80.1 °F 70 °F 29.77 in SSW 2.1 mph 10 mph 71.3% 0.00 in 83 W/m2
16:49 79.8 °F 69.9 °F 29.77 in South 0.9 mph 10 mph 71.8% 0.00 in 90 W/m2
16:54 79.6 °F 70.2 °F 29.77 in South 0.3 mph 10 mph 72.9% 0.00 in 69 W/m2
16:59 79.5 °F 70.4 °F 29.77 in South 2 mph 11 mph 73.5% 0.00 in 123 W/m2
17:04 79.5 °F 70.1 °F 29.77 in South 1.8 mph 11 mph 73.2% 0.00 in 104 W/m2
17:09 79.4 °F 70.2 °F 29.77 in South 1.6 mph 11 mph 73.7% 0.00 in 111 W/m2
17:14 79.3 °F 70.3 °F 29.77 in South 2.4 mph 12 mph 74% 0.00 in 98 W/m2
17:19 79.2 °F 70.2 °F 29.77 in SSW 1.2 mph 12 mph 74% 0.00 in 84 W/m2
17:24 79.1 °F 70.2 °F 29.77 in South 1.6 mph 12 mph 74.2% 0.00 in 69 W/m2
17:29 79 °F 70.4 °F 29.77 in South 1.8 mph 12 mph 75% 0.00 in 70 W/m2
17:34 78.9 °F 70.4 °F 29.77 in South 1.1 mph 12 mph 75.2% 0.00 in 97 W/m2
17:39 78.9 °F 70.7 °F 29.78 in SSW 1.1 mph 9 mph 76% 0.00 in 76 W/m2
17:44 78.9 °F 70.8 °F 29.78 in South 0.6 mph 9 mph 76.4% 0.00 in 72 W/m2
17:49 78.8 °F 70.8 °F 29.78 in South 0.8 mph 9 mph 76.5% 0.00 in 46 W/m2
17:54 78.7 °F 70.8 °F 29.78 in South 1.9 mph 9 mph 77% 0.00 in 44 W/m2
17:59 78.5 °F 70.7 °F 29.78 in South 1.2 mph 9 mph 77% 0.00 in 44 W/m2
18:04 78.3 °F 70.7 °F 29.78 in South 1.1 mph 9 mph 77.6% 0.00 in 30 W/m2
18:09 78.1 °F 70.7 °F 29.78 in South 1.9 mph 9 mph 78% 0.00 in 32 W/m2
18:14 77.9 °F 70.6 °F 29.78 in South 0.6 mph 9 mph 78.2% 0.00 in 30 W/m2
18:19 77.8 °F 70.8 °F 29.78 in South 0.9 mph 9 mph 79% 0.00 in 30 W/m2
18:24 77.7 °F 70.6 °F 29.78 in South 0.2 mph 9 mph 79% 0.00 in 21 W/m2
18:29 77.6 °F 70.8 °F 29.78 in SSE 0.9 mph 9 mph 79.6% 0.00 in 23 W/m2
18:34 77.5 °F 70.6 °F 29.78 in SSW 1.2 mph 9 mph 79.6% 0.00 in 28 W/m2
18:39 77.4 °F 70.7 °F 29.78 in South 0.5 mph 9 mph 79.9% 0.00 in 26 W/m2
18:44 77.3 °F 70.6 °F 29.78 in South 0.7 mph 9 mph 80% 0.00 in 19 W/m2
18:49 77.1 °F 70.5 °F 29.78 in SSW 0.3 mph 9 mph 80% 0.00 in 18 W/m2
18:54 77 °F 70.4 °F 29.78 in South 0.9 mph 9 mph 80.1% 0.00 in 12 W/m2
18:59 76.9 °F 70.6 °F 29.77 in South 1.1 mph 10 mph 81% 0.00 in 5 W/m2
19:04 76.7 °F 70.5 °F 29.77 in South 0.4 mph 10 mph 81% 0.00 in 0 W/m2
19:09 76.6 °F 70.5 °F 29.76 in South 1 mph 9 mph 81.4% 0.00 in 0 W/m2
19:14 76.5 °F 70.6 °F 29.76 in South 1.2 mph 9 mph 82% 0.00 in 0 W/m2
19:19 76.3 °F 70.4 °F 29.76 in South 0.3 mph 9 mph 82% 0.00 in 0 W/m2
19:24 76.2 °F 70.3 °F 29.76 in South 0.5 mph 9 mph 82% 0.00 in 0 W/m2
19:29 76.1 °F 70.2 °F 29.76 in South 0.2 mph 9 mph 82% 0.00 in 0 W/m2
19:34 76 °F 70.3 °F 29.76 in South 0.1 mph 9 mph 82.4% 0.00 in 0 W/m2
19:39 75.9 °F 70.4 °F 29.76 in SE 0.1 mph 2 mph 83% 0.00 in 0 W/m2
19:44 75.8 °F 70.3 °F 29.76 in SSE 0.5 mph 3 mph 83% 0.00 in 0 W/m2
19:49 75.8 °F 70.3 °F 29.76 in South 0.4 mph 3 mph 83.2% 0.00 in 0 W/m2
19:54 75.8 °F 70.6 °F 29.76 in SSE 0.2 mph 3 mph 84% 0.00 in 0 W/m2
19:59 75.8 °F 70.6 °F 29.76 in SE 0.2 mph 3 mph 84% 0.00 in 0 W/m2
20:00 75.8 °F 70.6 °F 29.76 in Calm   3 mph 84% 0.00 in 0 W/m2
20:09 75.8 °F 70.6 °F 29.76 in South 0.4 mph 4 mph 84% 0.00 in 0 W/m2
20:14 75.8 °F 70.6 °F 29.76 in SSE 0.3 mph 4 mph 84% 0.00 in 0 W/m2
20:19 75.8 °F 70.6 °F 29.76 in SE 0.4 mph 4 mph 84% 0.00 in 0 W/m2
20:24 75.8 °F 70.6 °F 29.77 in South 0.9 mph 5 mph 84% 0.00 in 0 W/m2
20:29 75.8 °F 70.7 °F 29.77 in South 0.6 mph 9 mph 84.3% 0.00 in 0 W/m2
20:34 75.7 °F 70.9 °F 29.76 in SSE 1.1 mph 9 mph 84.8% 0.00 in 0 W/m2
20:39 75.7 °F 70.8 °F 29.76 in South 0.4 mph 6 mph 84.8% 0.00 in 0 W/m2
20:44 75.7 °F 70.9 °F 29.76 in South 0.2 mph 6 mph 85% 0.00 in 0 W/m2
20:49 75.7 °F 70.9 °F 29.76 in South 0.3 mph 6 mph 85% 0.00 in 0 W/m2
20:54 75.7 °F 70.9 °F 29.77 in South 0.1 mph 6 mph 85% 0.00 in 0 W/m2
20:59 75.7 °F 70.9 °F 29.77 in South 0.2 mph 6 mph 85% 0.00 in 0 W/m2
21:04 75.7 °F 70.9 °F 29.77 in South 0.1 mph 6 mph 85% 0.00 in 0 W/m2
21:09 75.8 °F 71 °F 29.77 in SSW 0.3 mph 4 mph 85% 0.00 in 0 W/m2
21:14 75.8 °F 71 °F 29.78 in South 0.4 mph 4 mph 85% 0.00 in 0 W/m2
21:19 75.8 °F 71 °F 29.78 in South 0.1 mph 4 mph 85% 0.00 in 0 W/m2
21:24 75.8 °F 71 °F 29.78 in South 0.4 mph 4 mph 85% 0.00 in 0 W/m2
21:29 75.7 °F 70.9 °F 29.78 in SE 0.4 mph 4 mph 85% 0.00 in 0 W/m2
21:34 75.6 °F 70.8 °F 29.78 in Calm   4 mph 85% 0.00 in 0 W/m2
21:39 75.6 °F 70.8 °F 29.78 in SSE 0.1 mph 4 mph 85% 0.00 in 0 W/m2
21:44 75.6 °F 70.7 °F 29.78 in SSE 0.4 mph 4 mph 85% 0.00 in 0 W/m2
21:49 75.5 °F 70.7 °F 29.78 in SSW 0.3 mph 6 mph 85% 0.00 in 0 W/m2
21:54 75.4 °F 70.9 °F 29.78 in South 0.3 mph 6 mph 85.9% 0.00 in 0 W/m2
21:59 75.4 °F 70.9 °F 29.78 in South 0.2 mph 6 mph 86% 0.00 in 0 W/m2
22:04 75.4 °F 70.9 °F 29.78 in Calm   6 mph 86% 0.00 in 0 W/m2
22:09 75.3 °F 70.9 °F 29.78 in Calm   1 mph 86% 0.00 in 0 W/m2
22:14 75.3 °F 70.8 °F 29.78 in SW 0.2 mph 3 mph 86% 0.00 in 0 W/m2
22:19 75.2 °F 70.8 °F 29.77 in South 0.4 mph 6 mph 86% 0.00 in 0 W/m2
22:24 75.2 °F 70.7 °F 29.77 in South 0.1 mph 6 mph 86% 0.00 in 0 W/m2
22:29 75.1 °F 70.7 °F 29.77 in Calm   6 mph 86.3% 0.00 in 0 W/m2
22:34 75 °F 70.9 °F 29.77 in Calm   6 mph 87% 0.00 in 0 W/m2
22:39 75 °F 70.8 °F 29.77 in Calm     87% 0.00 in 0 W/m2
22:44 74.9 °F 70.8 °F 29.78 in Calm     87% 0.00 in 0 W/m2
22:49 74.9 °F 70.9 °F 29.78 in Calm     87.3% 0.00 in 0 W/m2
22:54 74.9 °F 71.1 °F 29.77 in Calm     88% 0.00 in 0 W/m2
22:59 74.8 °F 71 °F 29.77 in Calm     88% 0.00 in 0 W/m2
23:04 74.8 °F 71 °F 29.77 in Calm     88% 0.00 in 0 W/m2
23:09 74.7 °F 70.9 °F 29.77 in Calm     88% 0.00 in 0 W/m2
23:14 74.6 °F 70.8 °F 29.77 in Calm   1 mph 88% 0.00 in 0 W/m2
23:19 74.6 °F 70.8 °F 29.77 in Calm   1 mph 88% 0.00 in 0 W/m2
23:24 74.6 °F 70.8 °F 29.77 in Calm   2 mph 88% 0.00 in 0 W/m2
23:29 74.6 °F 70.8 °F 29.77 in Calm   2 mph 88% 0.00 in 0 W/m2
23:34 74.6 °F 70.8 °F 29.77 in Calm   2 mph 88% 0.00 in 0 W/m2
23:39 74.6 °F 70.8 °F 29.77 in Calm   1 mph 88% 0.00 in 0 W/m2
23:44 74.5 °F 70.8 °F 29.76 in Calm   1 mph 88.2% 0.00 in 0 W/m2
23:49 74.4 °F 70.9 °F 29.76 in Calm   1 mph 88.7% 0.00 in 0 W/m2
23:54 74.4 °F 70.9 °F 29.76 in Calm   2 mph 89% 0.00 in 0 W/m2
23:59 74.3 °F 70.8 °F 29.77 in Calm   2 mph 89% 0.00 in 0 W/m2
Hartford County Weather
Compliments of Weather Underground - 4 mb